CFE weather

Buffalo Municipal Airport
Buffalo, Minnesota, United States

Public forecast

Using degrees Fahrenheit for public forecast. Weather courtesy of forecast.io.

Current aviation weather report (METAR) for Buffalo Municipal Airport

Retrieved 2020/01/22 10:35 UTC (0 seconds ago):

KCFE 221035Z 10SM OVC016 M03/M06 A2986 RMK AO2 T10301057

Closest aviation forecast (TAF) to Buffalo Municipal Airport

Closest forecast is St Cloud Regional Airport, 25.0 nm (46.3 km) NNW. Retrieved 2020/01/22 06:22 UTC (4 hours ago):

TAF KSTC 220520Z 2206/2306 19010KT P6SM OVC150 WS020/23040KT FM220700 20010KT P6SM OVC120 FM221400 19006KT P6SM OVC025 FM221600 19006KT P6SM OVC015 FM221800 20007KT P6SM OVC008